Home > Products > Valid Products > TAF

000
FTUS43 KABR 210500
TAFPIR
TAF
KPIR 210524Z 2106/2206 31009KT P6SM SKC
     FM220100 VRB03KT P6SM SKC=



000
FTUS43 KABR 210500
TAFMBG
TAF
KMBG 210524Z 2106/2206 VRB05KT P6SM SKC=



000
FTUS43 KABR 210500
TAFABR
TAF
KABR 210524Z 2106/2206 30010KT P6SM SKC WS020/32035KT
     FM211200 32008KT P6SM SKC
     FM211500 34014KT P6SM SKC
     FM220100 VRB03KT P6SM SKC=



000
FTUS43 KABR 210500
TAFATY
TAF
KATY 210524Z 2106/2206 30009KT P6SM SKC
     FM211500 34016KT P6SM SKC
     FM220100 VRB03KT P6SM SKC=



000
FTUS43 KABR 210500 AAA
TAFPIR
TAF AMD
KPIR 210502Z 2105/2124 30008KT P6SM SKC
     FM210900 30006KT P6SM SKC=



000
FTUS43 KABR 210200 AAB
TAFATY
TAF AMD
KATY 210240Z 2103/2124 28010KT P6SM SKC
     FM211000 32008KT P6SM SKC
     FM211500 34016KT P6SM SKC=



000
FTUS43 KABR 202300 AAA
TAFATY
TAF AMD
KATY 202356Z 2100/2124 23020G30KT P6SM SKC
     FM210200 32014KT P6SM SKC
     FM211000 32008KT P6SM SKC
     FM211500 34016KT P6SM SKC=



000
FTUS43 KABR 202300
TAFABR
TAF
KABR 202320Z 2100/2124 31012KT P6SM SCT200
     FM210900 32008KT P6SM SKC
     FM211500 34014KT P6SM SKC=



000
FTUS43 KABR 202300
TAFATY
TAF
KATY 202320Z 2100/2124 23018G25KT P6SM SKC
     FM210200 32014KT P6SM SKC
     FM211000 32008KT P6SM SKC
     FM211500 34016KT P6SM SKC=



000
FTUS43 KABR 202300
TAFMBG
TAF
KMBG 202320Z 2100/2124 32018G25KT P6SM SKC
     FM210200 34010KT P6SM SKC=



000
FTUS43 KABR 202300
TAFPIR
TAF
KPIR 202320Z 2100/2124 32018G25KT P6SM SKC
     FM210200 33012KT P6SM SKC
     FM210900 30006KT P6SM SKC=



000
FTUS43 KABR 201900 AAA
TAFATY
TAF AMD
KATY 201953Z 2020/2118 25018G28KT P6SM TS BKN060CB BKN100
     FM202030 25018G28KT P6SM VCSH BKN100
     FM202200 32018G28KT P6SM BKN100
     FM210100 32012KT P6SM SKC=



000
FTUS43 KABR 201700
TAFMBG
TAF
KMBG 201725Z 2018/2118 32022G32KT P6SM SCT100
     FM210200 32008KT P6SM SKC=



000
FTUS43 KABR 201700
TAFPIR
TAF
KPIR 201725Z 2018/2118 32022G32KT P6SM SCT100
     FM210200 32008KT P6SM SKC=



000
FTUS43 KABR 201700
TAFATY
TAF
KATY 201725Z 2018/2118 30014KT P6SM VCSH BKN100
     FM201900 25018G28KT P6SM VCSH BKN100
     FM202200 32018G28KT P6SM BKN100
     FM210100 32012KT P6SM SKC=



000
FTUS43 KABR 201700
TAFABR
TAF
KABR 201725Z 2018/2118 25014KT P6SM VCSH BKN100
     FM201900 25020G32KT P6SM VCSH BKN100
     FM202200 32020G32KT P6SM BKN100
     FM210100 32012KT P6SM SKC=



000
FTUS43 KABR 201100
TAFPIR
TAF
KPIR 201129Z 2012/2112 VRB05KT P6SM SKC
     FM201700 29018G28KT P6SM SKC
     FM202100 32024G34KT P6SM SKC
     FM210200 32009KT P6SM SKC=



000
FTUS43 KABR 201100
TAFMBG
TAF
KMBG 201129Z 2012/2112 VRB03KT P6SM SKC
     FM201700 30019G29KT P6SM SKC
     FM210200 32007KT P6SM SKC=



000
FTUS43 KABR 201100
TAFATY
TAF
KATY 201129Z 2012/2112 VRB04KT P6SM SKC
     FM201700 28011KT P6SM SCT250
     FM202100 29020G30KT P6SM SCT250
     FM210000 33017KT P6SM SKC
     FM210200 32008KT P6SM SKC=



000
FTUS43 KABR 201100
TAFABR
TAF
KABR 201129Z 2012/2112 VRB04KT P6SM FEW060
     FM201700 27014G25KT P6SM SCT250
     FM202100 32025G35KT P6SM BKN250
     FM210000 32017KT P6SM SKC
     FM210200 31009KT P6SM SKC=



000
FTUS43 KABR 200600 AAA
TAFPIR
TAF AMD
KPIR 200613Z 2006/2106 32011G20KT P6SM VCTS BKN090CB
     FM200640 32010KT P6SM BKN090
     FM201700 29018G28KT P6SM SKC
     FM202100 32024G34KT P6SM SKC
     FM210000 34018KT P6SM SKC=



000
FTUS43 KABR 200500
TAFATY
TAF
KATY 200523Z 2006/2106 28007KT P6SM SCT150
     FM201700 27011KT P6SM SCT250
     FM202100 28020G30KT P6SM SCT250
     FM210000 33017KT P6SM SKC=



000
FTUS43 KABR 200500
TAFABR
TAF
KABR 200523Z 2006/2106 33010KT P6SM SCT150
     FM201700 25014G25KT P6SM SCT250
     FM202100 31025G35KT P6SM BKN250
     FM210000 32017KT P6SM SKC=



000
FTUS43 KABR 200500
TAFPIR
TAF
KPIR 200523Z 2006/2106 32011KT P6SM BKN150
     FM201700 29018G28KT P6SM SKC
     FM202100 32024G34KT P6SM SKC
     FM210000 34018KT P6SM SKC=



000
FTUS43 KABR 200500
TAFMBG
TAF
KMBG 200523Z 2006/2106 VRB05KT P6SM SCT150
     FM201700 29019G29KT P6SM SKC
     FM210000 33012KT P6SM SKC=



000
FTUS43 KABR 192300
TAFABR
TAF
KABR 192320Z 2000/2024 29009KT P6SM SCT150
     FM200900 30005KT P6SM SKC
     FM201800 30017G27KT P6SM FEW250=



000
FTUS43 KABR 192300
TAFMBG
TAF
KMBG 192320Z 2000/2024 30008KT P6SM SCT150
     FM201800 30019G26KT P6SM FEW250
     FM202100 32024G35KT P6SM FEW250=



000
FTUS43 KABR 192300
TAFATY
TAF
KATY 192320Z 2000/2024 27007KT P6SM SCT200
     FM201800 30015G25KT P6SM BKN250=



000
FTUS43 KABR 192300
TAFPIR
TAF
KPIR 192320Z 2000/2024 32011KT P6SM SCT100
     FM201800 30018G25KT P6SM SKC
     FM202100 31025G35KT P6SM SKC=



000
FTUS43 KABR 191900 AAA
TAFATY
TAF AMD
KATY 191913Z 1919/2018 23015G21KT P6SM BKN150
     FM192100 25011KT P6SM SCT150
     FM200000 25007KT P6SM SCT250=



000
FTUS43 KABR 191800 AAA
TAFABR
TAF AMD
KABR 191828Z 1918/2018 24010KT P6SM SCT080 BKN150
     FM192100 28014KT P6SM SCT250
     FM200000 27006KT P6SM SCT250=



000
FTUS43 KABR 191700
TAFMBG
TAF
KMBG 191720Z 1918/2018 29010KT P6SM SKC
     FM200000 29005KT P6SM BKN250
     FM201500 29012KT P6SM SKC=



000
FTUS43 KABR 191700
TAFPIR
TAF
KPIR 191720Z 1918/2018 26007KT P6SM SKC
     FM192100 31014KT P6SM SCT250
     FM200000 32007KT P6SM SCT250=



000
FTUS43 KABR 191700
TAFABR
TAF
KABR 191720Z 1918/2018 21009G16KT P6SM BKN010 OVC015
     FM192100 28014KT P6SM SCT250
     FM200000 27006KT P6SM SCT250=



000
FTUS43 KABR 191700
TAFATY
TAF
KATY 191720Z 1918/2018 20011KT P6SM SCT014 OVC021
     FM192100 25011KT P6SM OVC050
     FM200000 25007KT P6SM SCT250=



000
FTUS43 KABR 191600 AAC
TAFATY
TAF AMD
KATY 191632Z 1917/2012 20013KT P6SM OVC006
     FM191800 25015G22KT P6SM SCT025
     FM200200 30007KT P6SM FEW250=



000
FTUS43 KABR 191300 AAA
TAFABR
TAF AMD
KABR 191354Z 1914/2012 20006KT 2SM BR OVC007
     FM191700 22010KT P6SM BKN150
     FM192200 VRB05KT P6SM BKN250=



000
FTUS43 KABR 191300 AAB
TAFATY
TAF AMD
KATY 191322Z 1913/2012 17016G26KT 2SM BR OVC004
     FM191800 25015G22KT P6SM SCT025
     FM200200 30007KT P6SM FEW250=



000
FTUS43 KABR 191200 AAB
TAFABR
TAF AMD
KABR 191227Z 1912/2012 20009KT P6SM OVC009
     FM191700 22010KT P6SM BKN150
     FM192200 VRB05KT P6SM BKN250=



000
FTUS43 KABR 191200 AAA
TAFABR
TAF AMD
KABR 191221Z 1912/2012 20009KT P6SM OVC015
     FM191700 22010KT P6SM BKN150
     FM192200 VRB05KT P6SM BKN250=



000
FTUS43 KABR 191200 AAA
TAFATY
TAF AMD
KATY 191220Z 1912/2012 18014KT 4SM BR OVC004
     FM192000 25015G22KT P6SM SCT025
     FM200200 30007KT P6SM FEW250=



000
FTUS43 KABR 191100
TAFATY
TAF
KATY 191131Z 1912/2012 18014G22KT 4SM BR OVC009
     FM192000 25015G22KT P6SM SCT025
     FM200200 30007KT P6SM FEW250=



000
FTUS43 KABR 191100
TAFPIR
TAF
KPIR 191131Z 1912/2012 20009KT P6SM BKN150
     FM191400 26008KT P6SM OVC100
     FM191700 31015KT P6SM BKN250
     FM200100 31008KT P6SM SKC=



000
FTUS43 KABR 191100
TAFABR
TAF
KABR 191131Z 1912/2012 17017G25KT P6SM OVC015
     FM191700 22010KT P6SM BKN150
     FM192200 VRB05KT P6SM BKN250=



000
FTUS43 KABR 191100
TAFMBG
TAF
KMBG 191131Z 1912/2012 17009KT P6SM BKN150
     FM191500 20006KT P6SM OVC100
     FM191800 28009KT P6SM BKN250
     FM200100 VRB05KT P6SM SCT200=



000
FTUS43 KABR 191000 AAF
TAFATY
TAF AMD
KATY 191051Z 1911/2006 18014G22KT 5SM BR OVC009
     FM192100 23012KT P6SM SCT025
     FM200000 25005KT P6SM BKN250=



000
FTUS43 KABR 191000 AAF
TAFABR
TAF AMD
KABR 191050Z 1911/2006 17014G22KT P6SM OVC015
     FM191500 19010KT 4SM BR OVC010
     FM191800 23007KT P6SM BKN250=



000
FTUS43 KABR 191000 AAE
TAFATY
TAF AMD
KATY 191026Z 1910/2006 21015G25KT P6SM OVC015
     FM191120 18014KT P6SM OVC008
     FM192100 23012KT P6SM SCT025
     FM200000 25005KT P6SM BKN250=



000
FTUS43 KABR 190900 AAE
TAFABR
TAF AMD
KABR 190958Z 1910/2006 18010KT P6SM -RA FEW015 SCT120
     FM191100 18013KT 5SM BR VCSH OVC005
     FM191500 19010KT 4SM BR OVC010
     FM191800 23007KT P6SM BKN250=



000
FTUS43 KABR 190900 AAD
TAFABR
TAF AMD
KABR 190957Z 1910/2006 21009KT P6SM -RA FEW015 SCT120
     FM191100 18013KT 5SM BR VCSH OVC005
     FM191500 19010KT 4SM BR OVC010
     FM191800 23007KT P6SM BKN250=



000
FTUS43 KABR 190900 AAD
TAFMBG
TAF AMD
KMBG 190957Z 1910/2006 21011KT P6SM BKN150
     FM191200 13005KT 4SM BR OVC015
     FM191500 20006KT P6SM OVC100
     FM191800 27009KT P6SM BKN250=



000
FTUS43 KABR 190900 AAC
TAFMBG
TAF AMD
KMBG 190914Z 1909/2006 09012G20KT P6SM BKN080
     FM191000 13005KT 4SM BR OVC015
     FM191500 20006KT P6SM OVC100
     FM191800 27009KT P6SM BKN250=



000
FTUS43 KABR 190900 AAC
TAFABR
TAF AMD
KABR 190913Z 1909/2006 21009KT P6SM -RA VCTS BKN025CB
     FM191100 18013KT 5SM BR VCSH OVC005
     FM191500 19010KT 4SM BR OVC010
     FM191800 23007KT P6SM BKN250=



000
FTUS43 KABR 190900 AAA
TAFPIR
TAF AMD
KPIR 190913Z 1909/2006 14010KT P6SM BKN150
     FM191100 16009KT 5SM BR OVC015
     FM191500 26008KT P6SM OVC100
     FM191800 31007KT P6SM BKN250=



000
FTUS43 KABR 190800 AAD
TAFATY
TAF AMD
KATY 190841Z 1909/2006 18015KT P6SM OVC025
     FM191100 18014KT P6SM OVC008
     FM192100 23012KT P6SM SCT025
     FM200000 25005KT P6SM BKN250=



000
FTUS43 KABR 190800 AAC
TAFATY
TAF AMD
KATY 190835Z 1909/2006 17017G27KT P6SM OVC035
     FM191100 18014KT P6SM OVC008
     FM192100 23012KT P6SM SCT025
     FM200000 25005KT P6SM BKN250=



000
FTUS43 KABR 190800 AAB
TAFABR
TAF AMD
KABR 190835Z 1909/2006 17015G25KT P6SM VCTS BKN150CB
     FM191100 18013KT 5SM BR VCSH OVC005
     FM191500 19010KT 4SM BR OVC010
     FM191800 23007KT P6SM BKN250=



000
FTUS43 KABR 190800 AAB
TAFMBG
TAF AMD
KMBG 190826Z 1908/2006 09009KT 6SM -RA VCTS BKN080CB
     FM191000 13005KT 4SM BR OVC015
     FM191500 20006KT P6SM OVC100
     FM191800 27009KT P6SM BKN250=



000
FTUS43 KABR 190800 AAA
TAFABR
TAF AMD
KABR 190801Z 1908/2006 17015G25KT P6SM BKN200
     FM190900 18013KT 5SM BR VCSH OVC005
     FM191500 19010KT 4SM BR OVC010
     FM191800 23007KT P6SM BKN250=



000
FTUS43 KABR 190800 AAB
TAFATY
TAF AMD
KATY 190801Z 1908/2006 17017G27KT P6SM OVC035
     FM190900 18014KT P6SM OVC008
     FM192100 23012KT P6SM SCT025
     FM200000 25005KT P6SM BKN250=



000
FTUS43 KABR 190700 AAA
TAFMBG
TAF AMD
KMBG 190742Z 1908/2006 28015G24KT 3SM TSRA BKN060CB
     FM191000 13005KT 4SM BR OVC015
     FM191500 20006KT P6SM OVC100
     FM191800 27009KT P6SM BKN250=



000
FTUS43 KABR 190700 AAA
TAFATY
TAF AMD
KATY 190700Z 1907/2006 17015KT P6SM OVC030
     FM190900 18014KT P6SM OVC008
     FM192100 23012KT P6SM SCT025
     FM200000 25005KT P6SM BKN250=



000
FTUS43 KABR 190500
TAFMBG
TAF
KMBG 190524Z 1906/2006 16011KT P6SM VCTS BKN080CB
     FM191000 13005KT 4SM BR OVC015
     FM191500 20006KT P6SM OVC100
     FM191800 27009KT P6SM BKN250=



000
FTUS43 KABR 190500
TAFPIR
TAF
KPIR 190524Z 1906/2006 14010KT P6SM BKN150
     FM190900 16009KT 5SM BR OVC015
     FM191500 26008KT P6SM OVC100
     FM191800 31007KT P6SM BKN250=



000
FTUS43 KABR 190500
TAFABR
TAF
KABR 190524Z 1906/2006 17015KT P6SM BKN200
     FM190900 18013KT 5SM BR VCSH OVC005
     FM191500 19010KT 4SM BR OVC010
     FM191800 23007KT P6SM BKN250=



000
FTUS43 KABR 190500
TAFATY
TAF
KATY 190524Z 1906/2006 17015KT P6SM BKN200
     FM190900 18014KT P6SM OVC008
     FM192100 23012KT P6SM SCT025
     FM200000 25005KT P6SM BKN250=



000
FTUS43 KABR 190500 AAA
TAFMBG
TAF AMD
KMBG 190502Z 1905/1924 17010KT P6SM VCTS BKN100CB
     FM191200 12008KT P6SM BKN015
     FM191500 21008KT P6SM SCT020
     FM191800 28009KT P6SM BKN250=



000
FTUS43 KABR 190100 AAA
TAFPIR
TAF AMD
KPIR 190135Z 1902/1924 15008KT P6SM BKN150
     FM191000 18011KT P6SM BKN020
     FM191500 25008KT P6SM SCT020
     FM191800 29008KT P6SM BKN250=



000
FTUS43 KABR 182300
TAFATY
TAF
KATY 182320Z 1900/1924 18014KT P6SM SCT200
     FM190900 17013KT 3SM BR OVC008
     FM191800 21013KT P6SM BKN015=



000
FTUS43 KABR 182300
TAFMBG
TAF
KMBG 182320Z 1900/1924 17010KT P6SM BKN150
     FM191200 12008KT P6SM BKN015
     FM191500 21008KT P6SM SCT020
     FM191800 28009KT P6SM BKN250=



000
FTUS43 KABR 182300
TAFABR
TAF
KABR 182320Z 1900/1924 17015KT P6SM BKN200
     FM191000 18013KT 5SM BR OVC010
     FM192100 23009KT P6SM BKN250=



000
FTUS43 KABR 182300
TAFPIR
TAF
KPIR 182320Z 1900/1924 18015KT P6SM BKN150
     FM191000 18012KT P6SM BKN020
     FM191500 25008KT P6SM SCT020
     FM191800 29008KT P6SM BKN250=



000
FTUS43 KABR 182000 AAA
TAFABR
TAF AMD
KABR 182052Z 1821/1918 17015G24KT P6SM FEW040 BKN250
     FM190100 16015KT P6SM BKN250
     FM191000 18013KT 3SM BR OVC008
     FM191700 21013KT P6SM SCT015=



000
FTUS43 KABR 181900 AAA
TAFATY
TAF AMD
KATY 181908Z 1819/1918 18017G23KT P6SM SCT029 BKN035
     FM190100 17023G31KT P6SM SCT250
     FM191100 18018G27KT 3SM BR OVC006=



000
FTUS43 KABR 181700
TAFATY
TAF
KATY 181728Z 1818/1918 18015G22KT P6SM BKN020
      TEMPO 1818/1820 SCT020
     FM182000 17017G23KT P6SM SCT025 SCT100
     FM190100 17020G29KT P6SM SCT250
     FM191100 18023G32KT 3SM BR OVC006=



000
FTUS43 KABR 181700
TAFPIR
TAF
KPIR 181728Z 1818/1918 17018G25KT P6SM SCT030 SCT250
     FM190100 14013G21KT P6SM BKN250
     FM190700 14011KT 3SM BR BKN008
     FM191400 26012KT P6SM BKN250=



000
FTUS43 KABR 181700
TAFABR
TAF
KABR 181728Z 1818/1918 17015G24KT P6SM SCT100
     FM190100 16015KT P6SM SCT250
     FM191000 18013KT 3SM BR OVC008
     FM191700 21013KT P6SM SCT015=



000
FTUS43 KABR 181700
TAFMBG
TAF
KMBG 181728Z 1818/1918 16014G20KT P6SM SCT250
     FM190100 15013KT P6SM BKN250
      TEMPO 1910/1913 BKN008
     FM191300 27012KT P6SM BKN250=



000
FTUS43 KABR 181700 AAB
TAFATY
TAF AMD
KATY 181707Z 1817/1912 18015G22KT P6SM BKN020
      TEMPO 1818/1820 SCT020
     FM182000 17017G23KT P6SM SCT025 SCT100
     FM190100 17015KT P6SM BKN250=



000
FTUS43 KABR 181600 AAC
TAFPIR
TAF AMD
KPIR 181645Z 1817/1912 16015G22KT P6SM SCT030 SCT250
     FM190100 14014KT P6SM BKN250=



000
FTUS43 KABR 181500 AAA
TAFMBG
TAF AMD
KMBG 181514Z 1815/1912 16015G22KT P6SM SCT250
     FM190100 15013KT P6SM BKN250=



000
FTUS43 KABR 181500 AAB
TAFPIR
TAF AMD
KPIR 181509Z 1815/1912 13012KT P6SM SCT080 SCT250
     FM181700 15015G22KT P6SM SCT250
     FM190100 14014KT P6SM BKN250=



000
FTUS43 KABR 181500 AAA
TAFATY
TAF AMD
KATY 181506Z 1815/1912 14008KT P6SM SKC
     FM181600 17013G20KT P6SM FEW100 SCT250
     FM190100 17015KT P6SM BKN250=



000
FTUS43 KABR 181200 AAA
TAFPIR
TAF AMD
KPIR 181200Z 1812/1912 12011KT P6SM VCTS SCT070CB BKN250
     FM181300 08007KT P6SM SCT250
      TEMPO 1815/1817 BKN015
     FM181700 15015G22KT P6SM SCT250
     FM190100 14014KT P6SM BKN250=



000
FTUS43 KABR 181100
TAFPIR
TAF
KPIR 181122Z 1812/1912 08007KT P6SM SCT250
      TEMPO 1815/1817 BKN015
     FM181700 15015G22KT P6SM SCT250
     FM190100 14014KT P6SM BKN250=



000
FTUS43 KABR 181100
TAFMBG
TAF
KMBG 181122Z 1812/1912 10008KT P6SM SKC
     FM181600 15015G22KT P6SM SCT250
     FM190100 15013KT P6SM BKN250=



000
FTUS43 KABR 181100
TAFABR
TAF
KABR 181122Z 1812/1912 VRB04KT P6SM SKC
     FM181700 17013G21KT P6SM SCT250
     FM190100 16014KT P6SM BKN250=



000
FTUS43 KABR 181100
TAFATY
TAF
KATY 181122Z 1812/1912 VRB04KT P6SM SKC
      TEMPO 1814/1816 BKN015
     FM181600 17013G20KT P6SM SCT250
     FM190100 17015KT P6SM BKN250=



    US Dept of Commerce
    National Oceanic and Atmospheric Administration
    National Weather Service
    1325 East West Highway
    Silver Spring, MD 20910
    Page Author: NWS Internet Services Team
Disclaimer
Information Quality
Credits
Glossary
Privacy Policy
Freedom of Information Act (FOIA)
About Us
Career Opportunities